Terminal Aerodrome Forecast
Issued by NWS

Home | Current Version | Previous Version | Text Only | Print | Product List | Glossary On
Versions: 1 2 3 4 5 6 7 8 9 10 11 12 13 14 15 16 17 18 19 20 21 22 23 24
000
FTUS41 KBGM 290529
TAFELM
TAF
KELM 290529Z 2906/3006 25005KT P6SM BKN100
      TEMPO 2906/2909 -SHRA BKN050 OVC090
     FM290900 VRB03KT P6SM OVC025
     FM291600 31007KT P6SM OVC025
     FM300300 VRB03KT P6SM BKN200=

USA.gov is the U.S. government's official web portal to all federal, state and local government web resources and services.